Time;durP1;ratioP1;P1;durP2;ratioP2;P2;SDS_P1;SDS_P2;PMS_P1;PMS_P2;Temp;Humidity;BMP_temperature;BMP_pressure;BME280_temperature;BME280_humidity;BME280_pressure;Samples;Min_cycle;Max_cycle;Signal;HPM_P1;HPM_P2
2023/04/13 00:00:52;;;;;;;3.90;1.40;;;;;;;6.95;100.00;-18215.25;4918379;28;20048;-85
2023/04/13 00:03:17;;;;;;;3.78;1.20;;;;;;;7.03;100.00;-18217.19;4921227;29;20036;-83
2023/04/13 00:05:44;;;;;;;3.72;1.00;;;;;;;7.04;100.00;-18217.47;4922243;28;20051;-83
2023/04/13 00:08:10;;;;;;;2.67;1.05;;;;;;;7.06;100.00;-18218.16;4921425;29;20139;-84
2023/04/13 00:10:39;;;;;;;4.18;1.05;;;;;;;7.08;100.00;-18218.56;4922932;28;20051;-87
2023/04/13 00:13:06;;;;;;;3.50;1.20;;;;;;;7.05;100.00;-18217.75;4919604;29;20052;-86
2023/04/13 00:15:35;;;;;;;3.80;1.27;;;;;;;7.09;100.00;-18218.84;4916672;28;20452;-84
2023/04/13 00:18:01;;;;;;;3.70;1.30;;;;;;;7.04;100.00;-18217.47;4917608;29;20123;-84
2023/04/13 00:20:26;;;;;;;2.78;1.20;;;;;;;7.11;100.00;-18219.41;4918093;29;20064;-87
2023/04/13 00:22:52;;;;;;;3.50;1.00;;;;;;;7.01;100.00;-18216.91;4935844;28;20107;-83
2023/04/13 00:25:18;;;;;;;5.10;1.30;;;;;;;7.01;100.00;-18216.91;4919906;29;20127;-84
2023/04/13 00:27:43;;;;;;;6.50;1.02;;;;;;;6.99;100.00;-18216.22;4924313;29;20040;-83
2023/04/13 00:30:14;;;;;;;3.80;1.40;;;;;;;7.00;100.00;-18216.50;4921857;29;20139;-82
2023/04/13 00:32:41;;;;;;;2.85;1.00;;;;;;;6.98;100.00;-18216.09;4919023;29;20067;-82
2023/04/13 00:35:08;;;;;;;5.40;1.10;;;;;;;7.02;100.00;-18217.06;4917441;29;20051;-83
2023/04/13 00:37:34;;;;;;;2.42;0.82;;;;;;;6.92;100.00;-18214.44;4922593;29;20048;-85
2023/04/13 00:39:59;;;;;;;3.88;0.73;;;;;;;6.83;100.00;-18211.81;4919989;29;20063;-83
2023/04/13 00:42:25;;;;;;;3.55;0.90;;;;;;;6.91;100.00;-18214.16;4924493;29;20127;-83
2023/04/13 00:44:51;;;;;;;4.75;0.93;;;;;;;6.88;100.00;-18213.34;4924819;29;20048;-83
2023/04/13 00:47:26;;;;;;;2.15;0.80;;;;;;;6.86;100.00;-18212.78;4923337;29;20270;-84
2023/04/13 00:49:57;;;;;;;3.83;0.90;;;;;;;6.82;100.00;-18211.69;4928490;29;20048;-81
2023/04/13 00:52:22;;;;;;;4.05;1.00;;;;;;;6.81;100.00;-18211.41;4917814;29;20059;-84
2023/04/13 00:54:51;;;;;;;5.30;1.00;;;;;;;6.81;100.00;-18211.41;4919801;29;20040;-83
2023/04/13 00:57:19;;;;;;;2.53;0.82;;;;;;;6.82;100.00;-18211.53;4919901;29;20054;-88
2023/04/13 00:59:48;;;;;;;2.63;1.15;;;;;;;6.80;100.00;-18211.13;4919236;29;20051;-83
2023/04/13 01:02:14;;;;;;;2.25;0.90;;;;;;;6.73;100.00;-18209.19;4920098;29;20039;-85
2023/04/13 01:04:40;;;;;;;2.92;0.80;;;;;;;6.74;100.00;-18209.47;4925470;28;20052;-83
2023/04/13 01:07:19;;;;;;;2.50;0.85;;;;;;;6.71;100.00;-18208.66;4916637;29;20044;-83
2023/04/13 01:10:04;;;;;;;1.90;0.80;;;;;;;6.75;100.00;-18209.88;4919791;29;20512;-84
2023/04/13 01:12:56;;;;;;;5.63;1.00;;;;;;;6.74;100.00;-18209.47;4921711;28;20115;-83
2023/04/13 01:15:22;;;;;;;2.67;0.95;;;;;;;6.70;100.00;-18208.50;4920125;29;20063;-86
2023/04/13 01:17:55;;;;;;;2.40;0.82;;;;;;;6.70;100.00;-18208.38;4939331;28;20047;-82
2023/04/13 01:20:23;;;;;;;1.98;0.85;;;;;;;6.76;100.00;-18210.16;4922674;28;20051;-82
2023/04/13 01:23:00;;;;;;;3.58;1.00;;;;;;;6.73;100.00;-18209.34;4919908;29;20044;-84
2023/04/13 01:25:50;;;;;;;3.28;0.73;;;;;;;6.74;100.00;-18209.47;4932468;29;20083;-88
2023/04/13 01:28:18;;;;;;;2.50;0.90;;;;;;;6.72;100.00;-18209.06;4915091;29;20044;-83
2023/04/13 01:30:45;;;;;;;3.13;0.90;;;;;;;6.69;100.00;-18208.09;4917110;29;20047;-85
2023/04/13 01:33:11;;;;;;;4.38;1.02;;;;;;;6.70;100.00;-18208.50;4925163;29;20122;-86
2023/04/13 01:35:37;;;;;;;2.92;0.88;;;;;;;6.71;100.00;-18208.78;4917648;29;20081;-84
2023/04/13 01:38:05;;;;;;;3.78;1.40;;;;;;;6.71;100.00;-18208.66;4917283;28;20127;-85
2023/04/13 01:40:33;;;;;;;3.80;1.00;;;;;;;6.73;100.00;-18209.19;4929789;28;20588;-86
2023/04/13 01:42:58;;;;;;;1.80;0.77;;;;;;;6.72;100.00;-18209.06;4917507;28;20055;-82
2023/04/13 01:45:26;;;;;;;3.45;1.10;;;;;;;6.80;100.00;-18211.00;4917961;29;20052;-88
2023/04/13 01:47:56;;;;;;;2.92;0.95;;;;;;;6.79;100.00;-18210.84;4920751;29;20070;-83
2023/04/13 01:50:27;;;;;;;3.97;1.23;;;;;;;6.80;100.00;-18211.13;4917898;29;20071;-83
2023/04/13 01:52:56;;;;;;;4.93;1.02;;;;;;;6.77;100.00;-18210.44;4921467;29;20044;-85
2023/04/13 01:55:22;;;;;;;2.92;1.52;;;;;;;6.82;100.00;-18211.69;4922770;29;20044;-82
2023/04/13 01:57:50;;;;;;;4.82;1.05;;;;;;;6.85;100.00;-18212.38;4923202;29;20047;-82
2023/04/13 02:00:17;;;;;;;2.28;0.80;;;;;;;6.84;100.00;-18212.22;4924142;29;20407;-82
2023/04/13 02:02:43;;;;;;;6.32;0.90;;;;;;;6.82;100.00;-18211.69;4914605;29;20065;-83
2023/04/13 02:05:09;;;;;;;2.90;0.98;;;;;;;6.86;100.00;-18212.78;4917414;29;20080;-83
2023/04/13 02:07:37;;;;;;;4.70;0.90;;;;;;;6.85;100.00;-18212.50;4918407;29;20040;-83
2023/04/13 02:10:05;;;;;;;4.93;1.10;;;;;;;6.83;100.00;-18211.94;4916327;29;20036;-82
2023/04/13 02:12:33;;;;;;;5.15;1.20;;;;;;;6.84;100.00;-18212.22;4918213;29;20044;-82
2023/04/13 02:15:00;;;;;;;5.53;0.90;;;;;;;6.88;100.00;-18213.19;4917055;29;20119;-83
2023/04/13 02:17:28;;;;;;;2.75;0.93;;;;;;;6.82;100.00;-18211.69;4919598;29;20518;-83
2023/04/13 02:19:56;;;;;;;3.78;0.88;;;;;;;6.80;100.00;-18211.13;4916881;29;20083;-82
2023/04/13 02:22:22;;;;;;;3.35;1.27;;;;;;;6.79;100.00;-18210.84;4915330;29;20115;-83
2023/04/13 02:24:48;;;;;;;3.85;0.95;;;;;;;6.77;100.00;-18210.31;4917838;29;20067;-82
2023/04/13 02:27:14;;;;;;;3.45;1.05;;;;;;;6.78;100.00;-18210.72;4916456;29;20040;-83
2023/04/13 02:29:40;;;;;;;3.75;1.05;;;;;;;6.78;100.00;-18210.72;4917005;28;20043;-83
2023/04/13 02:32:06;;;;;;;2.75;1.10;;;;;;;6.79;100.00;-18210.84;4918087;29;20043;-83
2023/04/13 02:34:32;;;;;;;3.35;1.00;;;;;;;6.80;100.00;-18211.00;4921449;29;20075;-83
2023/04/13 02:36:59;;;;;;;3.53;0.95;;;;;;;6.76;100.00;-18210.03;4920988;29;20043;-83
2023/04/13 02:39:24;;;;;;;5.82;0.90;;;;;;;6.78;100.00;-18210.72;4925579;28;20062;-82
2023/04/13 02:41:50;;;;;;;3.70;0.93;;;;;;;6.84;100.00;-18212.09;4920161;29;20301;-83
2023/04/13 02:44:15;;;;;;;6.47;1.10;;;;;;;6.86;100.00;-18212.78;4922956;29;20050;-83
2023/04/13 02:46:40;;;;;;;5.13;0.93;;;;;;;6.86;100.00;-18212.66;4920420;29;20512;-83
2023/04/13 02:49:07;;;;;;;2.60;1.05;;;;;;;6.85;100.00;-18212.38;4931180;29;20055;-83
2023/04/13 02:51:33;;;;;;;3.08;0.85;;;;;;;6.79;100.00;-18210.84;4921781;29;20416;-83
2023/04/13 02:54:01;;;;;;;4.30;1.20;;;;;;;6.77;100.00;-18210.31;4920575;29;20040;-83
2023/04/13 02:56:27;;;;;;;2.75;1.00;;;;;;;6.83;100.00;-18211.94;4913380;29;20036;-83
2023/04/13 02:58:52;;;;;;;3.72;1.40;;;;;;;6.82;100.00;-18211.69;4918339;29;20078;-83
2023/04/13 03:01:18;;;;;;;2.38;1.20;;;;;;;6.79;100.00;-18210.84;4917231;29;20083;-82
2023/04/13 03:03:44;;;;;;;5.50;1.40;;;;;;;6.71;100.00;-18208.78;4922828;28;20158;-83
2023/04/13 03:06:09;;;;;;;3.50;1.17;;;;;;;6.73;100.00;-18209.34;4927993;28;20125;-83
2023/04/13 03:08:35;;;;;;;6.72;1.60;;;;;;;6.75;100.00;-18209.75;4921259;29;20039;-83
2023/04/13 03:11:01;;;;;;;2.80;1.10;;;;;;;6.72;100.00;-18208.91;4917828;29;20059;-83
2023/04/13 03:13:26;;;;;;;7.18;1.40;;;;;;;6.82;100.00;-18211.69;4914885;29;20056;-82
2023/04/13 03:15:51;;;;;;;4.20;1.15;;;;;;;6.79;100.00;-18210.84;4914999;29;20385;-83
2023/04/13 03:18:17;;;;;;;5.30;1.45;;;;;;;6.81;100.00;-18211.25;4917652;29;20068;-83
2023/04/13 03:20:43;;;;;;;2.03;1.20;;;;;;;6.78;100.00;-18210.72;4915388;29;20044;-83
2023/04/13 03:23:09;;;;;;;3.33;1.30;;;;;;;6.84;100.00;-18212.22;4920426;29;20666;-83
2023/04/13 03:25:35;;;;;;;4.22;1.20;;;;;;;6.86;100.00;-18212.78;4919830;29;20599;-83
2023/04/13 03:28:00;;;;;;;4.40;1.40;;;;;;;6.94;100.00;-18215.00;4917222;29;20070;-83
2023/04/13 03:30:25;;;;;;;4.85;1.98;;;;;;;6.98;100.00;-18215.94;4912511;29;20135;-83
2023/04/13 03:32:51;;;;;;;8.63;1.95;;;;;;;6.98;100.00;-18216.09;4917492;29;20079;-83
2023/04/13 03:35:16;;;;;;;4.95;1.80;;;;;;;6.99;100.00;-18216.22;4916575;29;20047;-83
2023/04/13 03:37:43;;;;;;;3.75;1.40;;;;;;;7.03;100.00;-18217.19;4917626;29;20063;-83
2023/04/13 03:40:09;;;;;;;4.38;1.60;;;;;;;7.05;100.00;-18217.75;4911583;29;20043;-83
2023/04/13 03:42:35;;;;;;;6.55;1.45;;;;;;;7.02;100.00;-18217.06;4914396;29;20103;-83
2023/04/13 03:45:01;;;;;;;5.93;1.40;;;;;;;7.01;100.00;-18216.91;4911494;29;20056;-83
2023/04/13 03:47:26;;;;;;;4.28;1.60;;;;;;;7.04;100.00;-18217.47;4911321;29;20493;-83
2023/04/13 03:49:51;;;;;;;5.35;1.45;;;;;;;6.99;100.00;-18216.38;4918443;28;20516;-83
2023/04/13 03:52:17;;;;;;;5.30;1.75;;;;;;;6.98;100.00;-18216.09;4921137;29;20039;-83
2023/04/13 03:54:42;;;;;;;4.45;1.25;;;;;;;6.98;100.00;-18215.94;4911208;29;20271;-83
2023/04/13 03:57:08;;;;;;;6.10;2.00;;;;;;;7.01;100.00;-18216.78;4913206;29;20059;-84
2023/04/13 03:59:33;;;;;;;5.43;1.75;;;;;;;7.03;100.00;-18217.19;4919390;29;20052;-83
2023/04/13 04:02:01;;;;;;;7.55;1.70;;;;;;;6.99;100.00;-18216.38;4922955;29;20063;-83
2023/04/13 04:04:26;;;;;;;7.43;1.80;;;;;;;7.01;100.00;-18216.91;4915127;29;20043;-83
2023/04/13 04:06:52;;;;;;;5.05;1.55;;;;;;;6.99;100.00;-18216.22;4918566;29;20048;-83
2023/04/13 04:09:17;;;;;;;4.18;1.98;;;;;;;6.97;100.00;-18215.69;4916817;29;20051;-83
2023/04/13 04:11:43;;;;;;;5.88;1.70;;;;;;;6.94;100.00;-18215.00;4917630;29;20043;-83
2023/04/13 04:14:08;;;;;;;8.50;2.05;;;;;;;6.91;100.00;-18214.16;4921274;29;20476;-83
2023/04/13 04:16:34;;;;;;;6.22;1.70;;;;;;;6.92;100.00;-18214.28;4917100;29;20040;-83
2023/04/13 04:18:59;;;;;;;6.43;1.88;;;;;;;6.92;100.00;-18214.28;4916137;29;20048;-83
2023/04/13 04:21:33;;;;;;;3.47;1.83;;;;;;;6.89;100.00;-18213.59;4915987;29;20067;-83
2023/04/13 04:24:04;;;;;;;6.75;1.95;;;;;;;6.86;100.00;-18212.78;4917639;29;20404;-83
2023/04/13 04:26:31;;;;;;;4.55;2.00;;;;;;;6.79;100.00;-18210.84;4913385;29;20051;-83
2023/04/13 04:29:02;;;;;;;5.32;2.13;;;;;;;6.83;100.00;-18211.94;4917955;29;20043;-83
2023/04/13 04:31:33;;;;;;;5.35;1.90;;;;;;;6.85;100.00;-18212.50;4913474;29;20040;-82
2023/04/13 04:34:00;;;;;;;5.20;1.92;;;;;;;6.83;100.00;-18211.94;4921473;29;20056;-84
2023/04/13 04:36:25;;;;;;;4.43;2.17;;;;;;;6.81;100.00;-18211.25;4916613;29;20103;-84
2023/04/13 04:38:56;;;;;;;5.07;2.00;;;;;;;6.90;100.00;-18213.75;4916989;29;20044;-83
2023/04/13 04:41:23;;;;;;;5.97;2.25;;;;;;;6.89;100.00;-18213.59;4917864;29;20123;-83
2023/04/13 04:43:48;;;;;;;6.00;2.58;;;;;;;6.85;100.00;-18212.38;4920608;29;20428;-84
2023/04/13 04:46:14;;;;;;;5.50;2.05;;;;;;;6.78;100.00;-18210.56;4917658;29;20225;-83
2023/04/13 04:48:40;;;;;;;7.60;2.20;;;;;;;6.80;100.00;-18211.13;4918730;29;20047;-83
2023/04/13 04:51:07;;;;;;;5.68;2.20;;;;;;;6.77;100.00;-18210.44;4910165;29;20119;-83
2023/04/13 04:53:32;;;;;;;6.25;3.08;;;;;;;6.80;100.00;-18211.00;4915832;29;20032;-83
2023/04/13 04:55:58;;;;;;;6.18;2.75;;;;;;;6.79;100.00;-18210.84;4917670;29;20381;-83
2023/04/13 04:58:23;;;;;;;4.97;2.58;;;;;;;6.82;100.00;-18211.69;4919303;29;20051;-83
2023/04/13 05:00:51;;;;;;;5.78;2.47;;;;;;;6.80;100.00;-18211.00;4916455;29;20047;-83
2023/04/13 05:03:16;;;;;;;6.85;2.50;;;;;;;6.78;100.00;-18210.56;4920068;29;20083;-83
2023/04/13 05:05:42;;;;;;;5.53;1.92;;;;;;;6.76;100.00;-18210.16;4919894;29;20052;-83
2023/04/13 05:08:08;;;;;;;5.20;2.30;;;;;;;6.71;100.00;-18208.66;4918356;29;20047;-83
2023/04/13 05:10:33;;;;;;;7.28;2.58;;;;;;;6.72;100.00;-18209.06;4918382;29;20047;-83
2023/04/13 05:12:59;;;;;;;5.85;2.40;;;;;;;6.78;100.00;-18210.56;4918202;28;20043;-82
2023/04/13 05:15:25;;;;;;;7.20;2.83;;;;;;;6.84;100.00;-18212.22;4917409;29;20040;-83
2023/04/13 05:17:51;;;;;;;5.10;2.13;;;;;;;6.80;100.00;-18211.13;4918335;29;20472;-82
2023/04/13 05:20:18;;;;;;;4.55;2.22;;;;;;;6.75;100.00;-18209.88;4917326;29;20086;-83
2023/04/13 05:22:43;;;;;;;8.82;2.55;;;;;;;6.75;100.00;-18209.88;4910169;29;20044;-83
2023/04/13 05:25:09;;;;;;;7.72;2.40;;;;;;;6.80;100.00;-18211.13;4920541;29;20082;-83
2023/04/13 05:27:34;;;;;;;7.25;2.47;;;;;;;6.76;100.00;-18210.03;4916524;29;20524;-83
2023/04/13 05:30:00;;;;;;;5.93;2.58;;;;;;;6.77;100.00;-18210.31;4918058;29;20091;-83
2023/04/13 05:32:25;;;;;;;6.30;2.47;;;;;;;6.78;100.00;-18210.72;4920353;29;20126;-83
2023/04/13 05:34:51;;;;;;;5.68;2.13;;;;;;;6.81;100.00;-18211.41;4923352;29;20044;-84
2023/04/13 05:37:16;;;;;;;4.97;2.20;;;;;;;6.78;100.00;-18210.72;4915442;29;20040;-84
2023/04/13 05:39:42;;;;;;;6.47;2.60;;;;;;;6.80;100.00;-18211.13;4914814;29;20048;-83
2023/04/13 05:42:07;;;;;;;7.05;3.20;;;;;;;6.77;100.00;-18210.31;4917576;29;20048;-84
2023/04/13 05:44:32;;;;;;;8.77;2.50;;;;;;;6.80;100.00;-18211.13;4915820;29;20551;-83
2023/04/13 05:46:58;;;;;;;6.82;2.85;;;;;;;6.81;100.00;-18211.41;4916842;29;20084;-83
2023/04/13 05:49:23;;;;;;;6.53;3.00;;;;;;;6.84;100.00;-18212.09;4942452;28;20055;-83
2023/04/13 05:51:50;;;;;;;7.70;3.40;;;;;;;6.88;100.00;-18213.34;4947036;28;20048;-83
2023/04/13 05:54:16;;;;;;;7.43;2.80;;;;;;;6.92;100.00;-18214.28;4939803;28;20044;-84
2023/04/13 05:56:41;;;;;;;10.35;3.22;;;;;;;6.95;100.00;-18215.25;4953703;28;20046;-83
2023/04/13 05:59:07;;;;;;;8.52;3.30;;;;;;;6.98;100.00;-18216.09;4935339;28;20051;-84
2023/04/13 06:01:33;;;;;;;5.18;3.03;;;;;;;7.04;100.00;-18217.47;4933181;28;20051;-83
2023/04/13 06:03:59;;;;;;;9.10;3.80;;;;;;;7.05;100.00;-18217.88;4952410;28;20044;-83
2023/04/13 06:06:25;;;;;;;7.80;3.63;;;;;;;7.07;100.00;-18218.44;4936121;28;20317;-83
2023/04/13 06:08:51;;;;;;;8.35;4.00;;;;;;;7.11;100.00;-18219.41;4936449;28;20058;-83
2023/04/13 06:11:17;;;;;;;12.25;5.28;;;;;;;7.17;100.00;-18221.06;4936216;28;20035;-83
2023/04/13 06:13:43;;;;;;;8.88;4.22;;;;;;;7.16;100.00;-18220.78;4943378;28;20058;-83
2023/04/13 06:16:09;;;;;;;7.53;4.07;;;;;;;7.21;100.00;-18222.16;4936428;28;20042;-83
2023/04/13 06:18:34;;;;;;;9.70;4.47;;;;;;;7.26;100.00;-18223.41;4931969;28;20039;-83
2023/04/13 06:20:59;;;;;;;7.63;4.50;;;;;;;7.28;100.00;-18224.09;4936604;28;20074;-83
2023/04/13 06:23:25;;;;;;;9.30;4.47;;;;;;;7.22;100.00;-18222.56;4943683;28;20052;-83
2023/04/13 06:25:50;;;;;;;9.65;5.10;;;;;;;7.21;100.00;-18222.28;4932807;28;20058;-83
2023/04/13 06:28:16;;;;;;;10.18;5.18;;;;;;;7.20;100.00;-18221.88;4935004;28;20050;-83
2023/04/13 06:30:42;;;;;;;9.93;4.80;;;;;;;7.24;100.00;-18222.97;4933674;28;20134;-83
2023/04/13 06:33:07;;;;;;;9.85;4.43;;;;;;;7.23;100.00;-18222.69;4934586;28;20048;-83
2023/04/13 06:35:34;;;;;;;9.27;4.95;;;;;;;7.23;100.00;-18222.84;4934042;28;20043;-83
2023/04/13 06:38:01;;;;;;;9.45;5.07;;;;;;;7.31;100.00;-18224.91;4935748;28;20480;-83
2023/04/13 06:40:27;;;;;;;8.98;4.25;;;;;;;7.36;100.00;-18226.28;4933770;28;20491;-83
2023/04/13 06:42:53;;;;;;;10.52;5.65;;;;;;;7.40;100.00;-18227.38;4937277;28;20058;-83
2023/04/13 06:45:19;;;;;;;11.25;6.43;;;;;;;7.52;100.00;-18230.41;4934836;28;20051;-83
2023/04/13 06:47:44;;;;;;;14.13;6.82;;;;;;;7.51;100.00;-18230.13;4935687;28;20094;-83
2023/04/13 06:50:14;;;;;;;13.15;5.85;;;;;;;7.62;100.00;-18233.31;4929864;29;20039;-83
2023/04/13 06:52:45;;;;;;;11.18;5.80;;;;;;;7.71;100.00;-18235.50;4935252;28;20043;-83
2023/04/13 06:55:11;;;;;;;13.10;5.30;;;;;;;7.81;100.00;-18238.28;4933639;28;20135;-83
2023/04/13 06:57:37;;;;;;;9.20;4.53;;;;;;;7.86;100.00;-18239.78;4945176;28;20556;-83
2023/04/13 07:00:05;;;;;;;10.27;5.60;;;;;;;7.98;100.00;-18242.81;4938420;28;20301;-83
2023/04/13 07:02:30;;;;;;;10.63;4.68;;;;;;;8.04;100.00;-18244.47;4931859;28;20455;-83
2023/04/13 07:04:56;;;;;;;10.00;5.00;;;;;;;7.99;100.00;-18243.09;4932349;28;20098;-83
2023/04/13 07:07:21;;;;;;;11.50;5.15;;;;;;;7.91;100.00;-18241.16;4931814;28;20099;-83
2023/04/13 07:09:46;;;;;;;9.77;4.55;;;;;;;7.84;100.00;-18239.22;4943050;28;20048;-83
2023/04/13 07:12:12;;;;;;;9.82;4.97;;;;;;;7.77;100.00;-18237.31;4935578;28;20082;-83
2023/04/13 07:14:39;;;;;;;9.15;4.68;;;;;;;7.79;100.00;-18237.84;4932906;28;20074;-83
2023/04/13 07:17:05;;;;;;;8.82;4.57;;;;;;;7.82;100.00;-18238.69;4935990;28;20063;-83
2023/04/13 07:19:32;;;;;;;8.95;4.45;;;;;;;7.89;100.00;-18240.47;4932158;28;20051;-83
2023/04/13 07:21:58;;;;;;;11.35;4.82;;;;;;;7.94;100.00;-18241.72;4932397;28;20384;-83
2023/04/13 07:24:26;;;;;;;9.25;4.80;;;;;;;7.99;100.00;-18243.09;4935892;28;20043;-83
2023/04/13 07:26:52;;;;;;;11.15;5.15;;;;;;;8.00;100.00;-18243.50;4936941;28;20044;-83
2023/04/13 07:29:18;;;;;;;9.50;4.55;;;;;;;7.98;100.00;-18242.81;4932512;28;20206;-83
2023/04/13 07:31:43;;;;;;;12.43;5.28;;;;;;;7.98;100.00;-18242.81;4930267;28;21182;-83
2023/04/13 07:34:09;;;;;;;7.90;4.70;;;;;;;7.96;100.00;-18242.25;4932268;28;20043;-83
2023/04/13 07:36:35;;;;;;;9.73;4.97;;;;;;;7.90;100.00;-18240.88;4931583;28;20086;-83
2023/04/13 07:39:02;;;;;;;9.52;4.75;;;;;;;7.91;100.00;-18241.03;4936266;28;20708;-83
2023/04/13 07:41:28;;;;;;;10.40;5.15;;;;;;;7.84;100.00;-18239.22;4931348;28;20061;-83
2023/04/13 07:43:53;;;;;;;8.40;5.47;;;;;;;7.75;100.00;-18236.75;4928492;28;20503;-82
2023/04/13 07:46:25;;;;;;;9.10;4.63;;;;;;;7.67;100.00;-18234.69;4947730;28;20035;-83
2023/04/13 07:48:50;;;;;;;10.98;5.38;;;;;;;7.65;100.00;-18234.00;4927711;28;20051;-83
2023/04/13 07:51:16;;;;;;;7.93;4.45;;;;;;;7.56;100.00;-18231.53;4931321;28;20047;-83
2023/04/13 07:53:42;;;;;;;8.45;4.82;;;;;;;7.56;100.00;-18231.53;4927610;28;20039;-83
2023/04/13 07:56:07;;;;;;;8.57;5.00;;;;;;;7.60;100.00;-18232.63;4935139;28;20110;-83
2023/04/13 07:58:33;;;;;;;8.73;4.72;;;;;;;7.59;100.00;-18232.47;4981010;23;20065;-88
2023/04/13 08:00:58;;;;;;;7.32;5.00;;;;;;;7.52;100.00;-18230.41;4984598;28;20046;-88
2023/04/13 08:03:23;;;;;;;9.48;5.40;;;;;;;7.51;100.00;-18230.13;4983412;28;20050;-88
2023/04/13 08:05:49;;;;;;;9.65;5.30;;;;;;;7.50;100.00;-18229.88;4983552;28;20057;-88
2023/04/13 08:08:14;;;;;;;8.20;5.60;;;;;;;7.42;100.00;-18227.94;4984255;28;20039;-88
2023/04/13 08:10:39;;;;;;;9.85;5.63;;;;;;;7.39;100.00;-18227.13;4982993;28;20073;-88
2023/04/13 08:13:05;;;;;;;8.93;5.38;;;;;;;7.37;100.00;-18226.56;4989435;28;20034;-88
2023/04/13 08:15:31;;;;;;;10.52;5.18;;;;;;;7.39;100.00;-18227.13;4986938;28;20125;-88
2023/04/13 08:17:57;;;;;;;7.90;4.50;;;;;;;7.37;100.00;-18226.44;4984008;28;20417;-87
2023/04/13 08:20:23;;;;;;;10.10;5.50;;;;;;;7.44;100.00;-18228.50;4984605;28;20543;-88
2023/04/13 08:22:48;;;;;;;8.20;5.13;;;;;;;7.46;100.00;-18229.03;4983869;28;20057;-88
2023/04/13 08:25:14;;;;;;;9.18;4.85;;;;;;;7.43;100.00;-18228.22;4983811;28;20050;-88
2023/04/13 08:27:40;;;;;;;8.57;4.82;;;;;;;7.36;100.00;-18226.16;4969209;28;20524;-87
2023/04/13 08:30:07;;;;;;;8.63;5.00;;;;;;;7.37;100.00;-18226.56;5010198;28;20030;-87
2023/04/13 08:32:32;;;;;;;11.48;5.43;;;;;;;7.33;100.00;-18225.47;4991664;28;20053;-88
2023/04/13 08:34:57;;;;;;;7.25;5.13;;;;;;;7.37;100.00;-18226.44;4984974;28;20054;-88
2023/04/13 08:37:23;;;;;;;10.75;5.05;;;;;;;7.40;100.00;-18227.38;4983904;28;20042;-88
2023/04/13 08:39:50;;;;;;;7.72;5.43;;;;;;;7.39;100.00;-18227.13;4981987;28;20096;-88
2023/04/13 08:42:17;;;;;;;12.75;5.13;;;;;;;7.42;100.00;-18227.94;4984934;28;20042;-88
2023/04/13 08:44:43;;;;;;;10.32;5.70;;;;;;;7.41;100.00;-18227.66;4982167;28;20516;-87
2023/04/13 08:47:09;;;;;;;12.10;5.55;;;;;;;7.46;100.00;-18228.91;5001444;28;20573;-88
2023/04/13 08:49:38;;;;;;;8.07;5.35;;;;;;;7.50;100.00;-18230.00;4987351;28;20038;-88
2023/04/13 08:52:07;;;;;;;11.95;6.13;;;;;;;7.53;100.00;-18230.81;5003797;28;20093;-88
2023/04/13 08:54:34;;;;;;;9.60;6.05;;;;;;;7.56;100.00;-18231.53;4987137;28;20519;-88
2023/04/13 08:57:01;;;;;;;10.68;5.57;;;;;;;7.50;100.00;-18229.88;4989018;28;20133;-88
2023/04/13 08:59:28;;;;;;;7.75;6.03;;;;;;;7.56;100.00;-18231.53;4988440;28;20042;-87
2023/04/13 09:01:56;;;;;;;8.85;5.75;;;;;;;7.54;100.00;-18231.09;4987383;28;20042;-88
2023/04/13 09:04:25;;;;;;;14.63;7.20;;;;;;;7.66;100.00;-18234.28;5002004;28;20132;-88
2023/04/13 09:06:51;;;;;;;11.57;6.45;;;;;;;7.73;100.00;-18236.19;4986361;28;20070;-88
2023/04/13 09:09:17;;;;;;;11.82;6.38;;;;;;;7.80;100.00;-18238.00;4987399;28;20073;-88
2023/04/13 09:11:44;;;;;;;12.88;7.55;;;;;;;7.91;100.00;-18241.16;4985035;28;20205;-88
2023/04/13 09:14:10;;;;;;;10.10;6.88;;;;;;;7.99;100.00;-18243.09;4988596;28;20096;-88
2023/04/13 09:16:42;;;;;;;10.50;7.03;;;;;;;7.98;100.00;-18242.81;4985954;28;20038;-88
2023/04/13 09:19:08;;;;;;;12.88;7.20;;;;;;;8.03;100.00;-18244.31;4986809;28;20489;-88
2023/04/13 09:21:41;;;;;;;12.90;6.65;;;;;;;8.16;100.00;-18247.78;4986946;28;20030;-88
2023/04/13 09:24:08;;;;;;;11.15;7.32;;;;;;;8.29;100.00;-18251.34;4987447;28;20043;-88
2023/04/13 09:26:47;;;;;;;12.93;7.97;;;;;;;8.39;100.00;-18253.84;4986544;28;20053;-88
2023/04/13 09:29:18;;;;;;;18.27;7.60;;;;;;;8.55;100.00;-18258.25;4987153;28;20038;-88
2023/04/13 09:31:46;;;;;;;12.40;6.57;;;;;;;8.61;100.00;-18259.75;4987165;28;20485;-88
2023/04/13 09:34:13;;;;;;;15.52;7.50;;;;;;;8.75;100.00;-18263.75;4984633;28;20369;-88
2023/04/13 09:36:39;;;;;;;16.33;7.68;;;;;;;8.94;100.00;-18268.84;4985473;28;20042;-87
2023/04/13 09:39:05;;;;;;;13.60;7.40;;;;;;;9.09;100.00;-18272.81;4988246;28;20030;-87
2023/04/13 09:41:35;;;;;;;13.80;7.30;;;;;;;9.19;100.00;-18275.44;4986872;28;20105;-88
2023/04/13 09:44:02;;;;;;;10.77;7.05;;;;;;;9.24;100.00;-18276.81;4987739;28;20053;-88
2023/04/13 09:46:28;;;;;;;12.20;6.97;;;;;;;9.35;100.00;-18279.69;4987049;28;20074;-88
2023/04/13 09:48:58;;;;;;;11.45;6.72;;;;;;;9.36;100.00;-18279.97;4985515;28;20070;-88
2023/04/13 09:51:24;;;;;;;16.98;6.28;;;;;;;9.30;100.00;-18278.47;4984524;28;20050;-88
2023/04/13 09:53:51;;;;;;;12.73;6.68;;;;;;;9.38;100.00;-18280.66;4987122;28;20129;-88
2023/04/13 09:56:16;;;;;;;15.45;6.57;;;;;;;9.34;100.00;-18279.44;4985982;28;20039;-88
2023/04/13 09:58:46;;;;;;;10.00;6.07;;;;;;;9.33;100.00;-18279.28;4984599;28;20568;-87
2023/04/13 10:01:14;;;;;;;11.88;5.85;;;;;;;9.31;100.00;-18278.59;4988346;28;20042;-88
2023/04/13 10:03:40;;;;;;;14.45;5.85;;;;;;;9.31;100.00;-18278.75;4984537;28;20417;-87
2023/04/13 10:06:07;;;;;;;11.15;5.70;;;;;;;9.39;100.00;-18280.94;4985141;28;20042;-87
2023/04/13 10:08:41;;;;;;;14.68;5.97;;;;;;;9.43;100.00;-18281.91;4985446;28;20042;-87
2023/04/13 10:11:12;;;;;;;11.73;5.80;;;;;;;9.50;100.00;-18283.81;4986635;28;20042;-88
2023/04/13 10:13:44;;;;;;;10.85;4.88;;;;;;;9.63;100.00;-18287.25;4985000;28;20042;-87
2023/04/13 10:16:19;;;;;;;16.23;4.75;;;;;;;9.72;100.00;-18289.75;4983308;28;20061;-87
2023/04/13 10:19:00;;;;;;;9.65;4.57;;;;;;;9.85;100.00;-18293.19;5000213;28;20195;-88
2023/04/13 10:21:37;;;;;;;9.50;4.47;;;;;;;9.91;100.00;-18294.97;4985871;28;20536;-87
2023/04/13 10:24:04;;;;;;;10.32;4.40;;;;;;;9.98;100.00;-18296.75;4997676;28;20563;-88
2023/04/13 10:26:31;;;;;;;8.48;3.80;;;;;;;10.02;100.00;-18297.72;4985055;28;20042;-87
2023/04/13 10:28:58;;;;;;;11.27;3.95;;;;;;;10.07;100.00;-18299.22;4985435;28;20053;-87
2023/04/13 10:31:40;;;;;;;7.05;2.30;;;;;;;10.09;100.00;-18299.63;4985171;28;20046;-88
2023/04/13 10:34:09;;;;;;;8.75;2.08;;;;;;;10.08;100.00;-18299.50;4988308;28;20046;-87
2023/04/13 10:36:39;;;;;;;6.72;1.98;;;;;;;10.10;100.00;-18300.06;4981747;28;20051;-88
2023/04/13 10:39:05;;;;;;;11.48;1.80;;;;;;;10.26;100.00;-18304.31;4982630;28;20046;-87
2023/04/13 10:41:30;;;;;;;9.40;1.88;;;;;;;10.35;100.00;-18306.78;4983166;28;20048;-88
2023/04/13 10:44:06;;;;;;;7.40;1.48;;;;;;;10.41;100.00;-18308.16;4981283;28;20046;-88
2023/04/13 10:46:33;;;;;;;6.15;1.65;;;;;;;10.57;100.00;-18312.69;4980234;28;20049;-87
2023/04/13 10:48:59;;;;;;;7.40;1.98;;;;;;;10.71;100.00;-18316.28;4983236;28;20038;-88
2023/04/13 10:51:26;;;;;;;4.82;1.70;;;;;;;10.89;100.00;-18321.22;4983460;28;20097;-88
2023/04/13 10:54:01;;;;;;;6.50;1.83;;;;;;;10.97;100.00;-18323.41;4982275;28;20283;-87
2023/04/13 10:56:27;;;;;;;8.60;2.33;;;;;;;10.79;100.00;-18318.59;4965747;28;20065;-87
2023/04/13 10:58:53;;;;;;;9.20;2.20;;;;;;;10.74;100.00;-18317.09;4983302;28;20493;-87
2023/04/13 11:01:19;;;;;;;8.38;2.30;;;;;;;10.57;100.00;-18312.56;5001561;28;20042;-88
2023/04/13 11:03:45;;;;;;;7.55;3.10;;;;;;;10.56;100.00;-18312.44;4984329;28;20057;-87
2023/04/13 11:06:11;;;;;;;5.35;1.80;;;;;;;10.47;100.00;-18309.94;4985285;28;20084;-88
2023/04/13 11:08:38;;;;;;;10.65;2.92;;;;;;;10.49;100.00;-18310.38;4999314;28;20046;-88
2023/04/13 11:11:04;;;;;;;8.50;2.70;;;;;;;10.42;100.00;-18308.44;4985365;28;20259;-88
2023/04/13 11:13:30;;;;;;;7.90;2.80;;;;;;;10.47;100.00;-18309.94;4984037;28;20056;-88
2023/04/13 11:16:04;;;;;;;14.13;3.10;;;;;;;10.39;100.00;-18307.75;4995799;28;20396;-87
2023/04/13 11:18:30;;;;;;;9.73;3.10;;;;;;;10.27;100.00;-18304.44;4994721;28;20046;-88
2023/04/13 11:20:55;;;;;;;11.18;3.08;;;;;;;10.23;100.00;-18303.47;4983459;28;20112;-87